Time;durP1;ratioP1;P1;durP2;ratioP2;P2;SDS_P1;SDS_P2;PMS_P1;PMS_P2;Temp;Humidity;BMP_temperature;BMP_pressure;BME280_temperature;BME280_humidity;BME280_pressure;Samples;Min_cycle;Max_cycle;Signal;HPM_P1;HPM_P2
2022/03/09 00:01:26;;;;;;;0.50;0.50;;;;;;;;;;5004785;28;20041;-74
2022/03/09 00:03:52;;;;;;;0.40;0.40;;;;;;;;;;5006840;28;20403;-74
2022/03/09 00:06:18;;;;;;;0.30;0.30;;;;;;;;;;5007141;28;20095;-79
2022/03/09 00:08:44;;;;;;;0.30;0.30;;;;;;;;;;5006798;28;20052;-80
2022/03/09 00:11:10;;;;;;;0.50;0.50;;;;;;;;;;5006550;28;20038;-80
2022/03/09 00:13:36;;;;;;;64.18;58.20;;;;;;;;;;5006203;28;20060;-79
2022/03/09 00:16:02;;;;;;;0.10;0.10;;;;;;;;;;5007158;28;20699;-79
2022/03/09 00:18:28;;;;;;;0.30;0.30;;;;;;;;;;5006882;28;20069;-79
2022/03/09 00:20:54;;;;;;;0.10;0.10;;;;;;;;;;5006664;28;20406;-80
2022/03/09 00:23:20;;;;;;;0.40;0.40;;;;;;;;;;5005967;28;20100;-81
2022/03/09 00:25:46;;;;;;;0.57;0.57;;;;;;;;;;5006308;28;20022;-77
2022/03/09 00:28:12;;;;;;;0.30;0.30;;;;;;;;;;5006141;28;21130;-76
2022/03/09 00:30:38;;;;;;;0.20;0.20;;;;;;;;;;5006646;28;20034;-77
2022/03/09 00:33:04;;;;;;;0.50;0.50;;;;;;;;;;5006844;28;20062;-78
2022/03/09 00:35:31;;;;;;;0.20;0.20;;;;;;;;;;5005687;28;20026;-78
2022/03/09 00:37:57;;;;;;;0.37;0.37;;;;;;;;;;5005784;28;20030;-77
2022/03/09 00:40:23;;;;;;;0.17;0.17;;;;;;;;;;5006392;28;20039;-78
2022/03/09 00:42:49;;;;;;;1.10;1.00;;;;;;;;;;5005878;28;20501;-78
2022/03/09 00:45:15;;;;;;;0.63;0.63;;;;;;;;;;5006370;28;20040;-78
2022/03/09 00:47:41;;;;;;;1.15;1.00;;;;;;;;;;5005730;28;20721;-77
2022/03/09 00:50:07;;;;;;;0.63;0.63;;;;;;;;;;5005953;28;20028;-77
2022/03/09 00:52:33;;;;;;;0.57;0.57;;;;;;;;;;5004614;28;20048;-77
2022/03/09 00:54:59;;;;;;;0.13;0.13;;;;;;;;;;5004982;28;20497;-77
2022/03/09 00:57:26;;;;;;;0.20;0.20;;;;;;;;;;5005747;28;20030;-78
2022/03/09 00:59:52;;;;;;;1.27;1.10;;;;;;;;;;5006299;28;20177;-78
2022/03/09 01:02:18;;;;;;;0.52;0.50;;;;;;;;;;5004992;28;20034;-78
2022/03/09 01:04:45;;;;;;;0.60;0.60;;;;;;;;;;5005601;28;20198;-78
2022/03/09 01:07:11;;;;;;;0.65;0.47;;;;;;;;;;5005283;28;20034;-75
2022/03/09 01:09:37;;;;;;;0.23;0.23;;;;;;;;;;5005392;28;20607;-75
2022/03/09 01:12:03;;;;;;;0.37;0.37;;;;;;;;;;5005900;28;20727;-75
2022/03/09 01:14:29;;;;;;;0.38;0.38;;;;;;;;;;4997589;28;20982;-75
2022/03/09 01:16:55;;;;;;;1.27;0.82;;;;;;;;;;5004914;28;20520;-75
2022/03/09 01:19:21;;;;;;;0.67;0.67;;;;;;;;;;5005057;28;20029;-75
2022/03/09 01:21:47;;;;;;;0.30;0.30;;;;;;;;;;4997713;28;20025;-75
2022/03/09 01:24:13;;;;;;;0.30;0.30;;;;;;;;;;5005634;28;20029;-74
2022/03/09 01:26:39;;;;;;;0.47;0.47;;;;;;;;;;5004640;28;20074;-75
2022/03/09 01:29:07;;;;;;;0.30;0.30;;;;;;;;;;5004316;28;20053;-75
2022/03/09 01:31:33;;;;;;;1.05;0.65;;;;;;;;;;5004885;28;20084;-75
2022/03/09 01:33:59;;;;;;;0.40;0.40;;;;;;;;;;5005043;28;20509;-75
2022/03/09 01:36:25;;;;;;;0.30;0.30;;;;;;;;;;5004760;28;20057;-75
2022/03/09 01:38:51;;;;;;;1.10;0.73;;;;;;;;;;5005412;28;20073;-75
2022/03/09 01:41:17;;;;;;;0.10;0.10;;;;;;;;;;5005107;28;20072;-75
2022/03/09 01:43:43;;;;;;;0.20;0.20;;;;;;;;;;5004705;28;20033;-75
2022/03/09 01:46:09;;;;;;;0.30;0.30;;;;;;;;;;5004315;28;20124;-75
2022/03/09 01:48:35;;;;;;;0.10;0.10;;;;;;;;;;5004568;28;20025;-75
2022/03/09 01:51:02;;;;;;;0.77;0.63;;;;;;;;;;5005367;28;20556;-75
2022/03/09 01:53:28;;;;;;;0.35;0.35;;;;;;;;;;5003427;28;20083;-75
2022/03/09 01:55:54;;;;;;;0.20;0.20;;;;;;;;;;5004898;28;20041;-76
2022/03/09 01:58:20;;;;;;;2.17;0.75;;;;;;;;;;5004337;28;20034;-75
2022/03/09 02:00:46;;;;;;;0.40;0.40;;;;;;;;;;4988739;28;20026;-75
2022/03/09 02:03:12;;;;;;;0.30;0.30;;;;;;;;;;4998296;28;20029;-74
2022/03/09 02:05:38;;;;;;;0.30;0.30;;;;;;;;;;5004194;28;20033;-74
2022/03/09 02:10:51;;;;;;;0.50;0.50;;;;;;;;;;5004345;28;20552;-74
2022/03/09 02:13:17;;;;;;;0.75;0.73;;;;;;;;;;5004482;28;20117;-75
2022/03/09 02:15:44;;;;;;;0.82;0.65;;;;;;;;;;5004428;28;20029;-74
2022/03/09 02:18:10;;;;;;;0.28;0.28;;;;;;;;;;5004753;28;20034;-74
2022/03/09 02:20:37;;;;;;;0.67;0.67;;;;;;;;;;5003488;28;20033;-74
2022/03/09 02:23:03;;;;;;;0.22;0.22;;;;;;;;;;5003655;28;20857;-75
2022/03/09 02:25:29;;;;;;;0.22;0.22;;;;;;;;;;5003195;28;20573;-74
2022/03/09 02:27:55;;;;;;;0.10;0.10;;;;;;;;;;5003561;28;20036;-74
2022/03/09 02:30:21;;;;;;;0.47;0.47;;;;;;;;;;5004084;28;20055;-74
2022/03/09 02:32:48;;;;;;;0.53;0.37;;;;;;;;;;5003995;28;20033;-75
2022/03/09 02:35:15;;;;;;;0.20;0.20;;;;;;;;;;5003140;28;20029;-75
2022/03/09 02:37:42;;;;;;;0.57;0.57;;;;;;;;;;5003290;28;20120;-74
2022/03/09 02:40:09;;;;;;;0.20;0.20;;;;;;;;;;5003054;28;20409;-74
2022/03/09 02:42:35;;;;;;;0.30;0.30;;;;;;;;;;5003578;28;20033;-75
2022/03/09 02:45:01;;;;;;;0.50;0.50;;;;;;;;;;4998188;28;20037;-75
2022/03/09 02:47:27;;;;;;;0.10;0.10;;;;;;;;;;5003119;28;20062;-75
2022/03/09 02:49:53;;;;;;;0.68;0.65;;;;;;;;;;5003408;28;20249;-76
2022/03/09 02:52:19;;;;;;;0.30;0.30;;;;;;;;;;4994111;28;20159;-76
2022/03/09 02:54:45;;;;;;;0.95;0.60;;;;;;;;;;5003092;28;20615;-74
2022/03/09 02:57:11;;;;;;;0.30;0.30;;;;;;;;;;4997798;28;20038;-75
2022/03/09 02:59:37;;;;;;;0.20;0.20;;;;;;;;;;5002844;28;20057;-75
2022/03/09 03:02:03;;;;;;;2.03;0.73;;;;;;;;;;5002573;28;20072;-75
2022/03/09 03:04:29;;;;;;;0.10;0.10;;;;;;;;;;5002740;28;20141;-75
2022/03/09 03:06:56;;;;;;;0.68;0.68;;;;;;;;;;5003452;28;20095;-73
2022/03/09 03:09:23;;;;;;;0.67;0.67;;;;;;;;;;5003084;28;20049;-74
2022/03/09 03:11:49;;;;;;;;;;;;;;;;;;5003280;28;20114;-74
2022/03/09 03:14:15;;;;;;;0.40;0.40;;;;;;;;;;5001678;28;20667;-74
2022/03/09 03:16:41;;;;;;;0.30;0.30;;;;;;;;;;5007545;28;20038;-74
2022/03/09 03:19:07;;;;;;;0.47;0.47;;;;;;;;;;5007100;28;20034;-74
2022/03/09 03:21:34;;;;;;;0.25;0.25;;;;;;;;;;5007529;28;20083;-74
2022/03/09 03:24:00;;;;;;;0.40;0.40;;;;;;;;;;5007433;28;20582;-74
2022/03/09 03:26:28;;;;;;;0.45;0.45;;;;;;;;;;5006614;28;20038;-75
2022/03/09 03:28:54;;;;;;;1.17;0.85;;;;;;;;;;5006889;28;20110;-74
2022/03/09 03:31:21;;;;;;;0.90;0.90;;;;;;;;;;5007229;28;20046;-73
2022/03/09 03:33:47;;;;;;;0.77;0.77;;;;;;;;;;5006939;28;20045;-74
2022/03/09 03:36:14;;;;;;;0.57;0.57;;;;;;;;;;5007490;28;20645;-74
2022/03/09 03:38:40;;;;;;;1.10;0.68;;;;;;;;;;5004577;28;20532;-74
2022/03/09 03:41:06;;;;;;;0.20;0.20;;;;;;;;;;4995095;28;20038;-74
2022/03/09 03:43:32;;;;;;;0.70;0.70;;;;;;;;;;4997270;28;20034;-74
2022/03/09 03:45:58;;;;;;;0.70;0.45;;;;;;;;;;5006383;28;20611;-74
2022/03/09 03:48:24;;;;;;;0.30;0.30;;;;;;;;;;5004034;28;20033;-74
2022/03/09 03:50:50;;;;;;;0.22;0.22;;;;;;;;;;5006223;28;20037;-74
2022/03/09 03:53:16;;;;;;;0.63;0.63;;;;;;;;;;5006585;28;20042;-74
2022/03/09 03:55:44;;;;;;;0.50;0.50;;;;;;;;;;5002738;28;20041;-74
2022/03/09 03:58:10;;;;;;;0.57;0.57;;;;;;;;;;4993491;28;20037;-74
2022/03/09 04:00:36;;;;;;;0.40;0.40;;;;;;;;;;5005632;28;20571;-74
2022/03/09 04:03:02;;;;;;;1.13;1.03;;;;;;;;;;5006485;28;20073;-74
2022/03/09 04:05:29;;;;;;;0.40;0.40;;;;;;;;;;5006389;28;20037;-74
2022/03/09 04:07:55;;;;;;;0.30;0.30;;;;;;;;;;5006374;28;20026;-74
2022/03/09 04:10:21;;;;;;;0.30;0.30;;;;;;;;;;5006450;28;20406;-74
2022/03/09 04:12:47;;;;;;;0.60;0.45;;;;;;;;;;4990660;28;20053;-74
2022/03/09 04:15:13;;;;;;;0.43;0.43;;;;;;;;;;5006564;28;20038;-74
2022/03/09 04:17:40;;;;;;;0.30;0.30;;;;;;;;;;5004713;28;20250;-75
2022/03/09 04:20:06;;;;;;;0.10;0.10;;;;;;;;;;5006078;28;20037;-75
2022/03/09 04:22:32;;;;;;;0.65;0.65;;;;;;;;;;5006055;28;20034;-75
2022/03/09 04:24:59;;;;;;;0.43;0.43;;;;;;;;;;5006207;28;20956;-75
2022/03/09 04:27:25;;;;;;;0.22;0.22;;;;;;;;;;5005824;28;20037;-75
2022/03/09 04:29:51;;;;;;;0.63;0.63;;;;;;;;;;5003745;28;20034;-75
2022/03/09 04:32:17;;;;;;;0.40;0.40;;;;;;;;;;5006257;28;20049;-75
2022/03/09 04:34:43;;;;;;;0.13;0.13;;;;;;;;;;5005899;28;20036;-75
2022/03/09 04:37:09;;;;;;;0.50;0.50;;;;;;;;;;5005436;28;20416;-74
2022/03/09 04:39:35;;;;;;;2.87;1.00;;;;;;;;;;4990220;28;20037;-74
2022/03/09 04:42:01;;;;;;;0.63;0.63;;;;;;;;;;5006822;28;20033;-75
2022/03/09 04:44:27;;;;;;;0.50;0.50;;;;;;;;;;4997239;28;20033;-74
2022/03/09 04:46:53;;;;;;;0.60;0.60;;;;;;;;;;4998708;28;20036;-75
2022/03/09 04:49:19;;;;;;;0.52;0.52;;;;;;;;;;4994543;28;20325;-74
2022/03/09 04:51:45;;;;;;;0.35;0.35;;;;;;;;;;5005579;28;20494;-75
2022/03/09 04:54:11;;;;;;;0.98;0.65;;;;;;;;;;5006180;28;20038;-74
2022/03/09 04:56:37;;;;;;;0.47;0.33;;;;;;;;;;4997177;28;20919;-74
2022/03/09 04:59:03;;;;;;;1.10;1.00;;;;;;;;;;4999779;28;20058;-74
2022/03/09 05:01:29;;;;;;;0.40;0.40;;;;;;;;;;5005424;28;20328;-74
2022/03/09 05:03:55;;;;;;;0.10;0.10;;;;;;;;;;5005467;28;20026;-73
2022/03/09 05:06:22;;;;;;;0.83;0.63;;;;;;;;;;5005812;28;20121;-77
2022/03/09 05:08:48;;;;;;;0.60;0.60;;;;;;;;;;5005392;28;20779;-77
2022/03/09 05:11:14;;;;;;;0.33;0.33;;;;;;;;;;5005438;28;20092;-78
2022/03/09 05:13:40;;;;;;;0.35;0.35;;;;;;;;;;5005481;28;20056;-78
2022/03/09 05:16:06;;;;;;;0.40;0.40;;;;;;;;;;5005361;28;20112;-77
2022/03/09 05:18:33;;;;;;;0.55;0.55;;;;;;;;;;5005460;28;20087;-77
2022/03/09 05:20:59;;;;;;;0.63;0.63;;;;;;;;;;5005911;28;20527;-77
2022/03/09 05:23:25;;;;;;;0.20;0.20;;;;;;;;;;5004949;28;20033;-78
2022/03/09 05:25:51;;;;;;;0.50;0.50;;;;;;;;;;5005045;28;20111;-78
2022/03/09 05:28:17;;;;;;;0.30;0.30;;;;;;;;;;5005107;28;20141;-78
2022/03/09 05:30:43;;;;;;;0.28;0.28;;;;;;;;;;5005062;28;20184;-77
2022/03/09 05:33:09;;;;;;;0.40;0.40;;;;;;;;;;5005572;28;20320;-78
2022/03/09 05:35:37;;;;;;;0.77;0.77;;;;;;;;;;5004807;28;20037;-78
2022/03/09 05:38:03;;;;;;;1.63;0.90;;;;;;;;;;5003623;28;20041;-76
2022/03/09 05:40:29;;;;;;;0.70;0.70;;;;;;;;;;5004415;28;20109;-76
2022/03/09 05:42:55;;;;;;;0.25;0.25;;;;;;;;;;5004244;28;20429;-77
2022/03/09 05:45:21;;;;;;;0.20;0.20;;;;;;;;;;5001517;28;20042;-77
2022/03/09 05:47:47;;;;;;;0.40;0.40;;;;;;;;;;5000591;28;20612;-77
2022/03/09 05:50:13;;;;;;;0.60;0.60;;;;;;;;;;5004370;28;20080;-77
2022/03/09 05:52:39;;;;;;;0.60;0.60;;;;;;;;;;5003985;28;20069;-79
2022/03/09 05:55:06;;;;;;;1.23;1.13;;;;;;;;;;5003752;28;20279;-79
2022/03/09 05:57:32;;;;;;;1.13;0.80;;;;;;;;;;5004152;28;20115;-78
2022/03/09 05:59:59;;;;;;;1.10;0.88;;;;;;;;;;4997469;28;20105;-79
2022/03/09 06:02:27;;;;;;;0.47;0.47;;;;;;;;;;5002620;28;20049;-77
2022/03/09 06:04:53;;;;;;;0.10;0.10;;;;;;;;;;5003789;28;20063;-76
2022/03/09 06:07:19;;;;;;;0.60;0.60;;;;;;;;;;5002402;28;20561;-76
2022/03/09 06:09:45;;;;;;;0.25;0.25;;;;;;;;;;5002842;28;20034;-79
2022/03/09 06:12:11;;;;;;;0.50;0.50;;;;;;;;;;4988538;28;20046;-81
2022/03/09 06:14:37;;;;;;;0.70;0.70;;;;;;;;;;4998470;28;20117;-84
2022/03/09 06:17:03;;;;;;;0.45;0.45;;;;;;;;;;5003499;28;20855;-80
2022/03/09 06:19:29;;;;;;;0.65;0.65;;;;;;;;;;5000828;28;20030;-80
2022/03/09 06:21:55;;;;;;;1.57;1.10;;;;;;;;;;5003386;28;20025;-82
2022/03/09 06:24:21;;;;;;;0.10;0.10;;;;;;;;;;5003346;28;20038;-80
2022/03/09 06:26:47;;;;;;;0.40;0.40;;;;;;;;;;5003198;28;20037;-80
2022/03/09 06:29:13;;;;;;;0.28;0.28;;;;;;;;;;5003601;28;20064;-81
2022/03/09 06:31:44;;;;;;;2.20;0.32;;;;;;;;;;5002991;28;20046;-80
2022/03/09 06:34:11;;;;;;;0.30;0.30;;;;;;;;;;5002483;28;20070;-81
2022/03/09 06:36:37;;;;;;;0.23;0.23;;;;;;;;;;5002594;28;20034;-84
2022/03/09 06:39:04;;;;;;;0.52;0.52;;;;;;;;;;4999697;28;20272;-80
2022/03/09 06:41:30;;;;;;;0.90;0.90;;;;;;;;;;4995428;28;20038;-80
2022/03/09 06:43:56;;;;;;;1.17;1.10;;;;;;;;;;5002311;28;20034;-82
2022/03/09 06:46:22;;;;;;;0.45;0.45;;;;;;;;;;5003129;28;20045;-80
2022/03/09 06:48:48;;;;;;;0.40;0.40;;;;;;;;;;4987997;28;20048;-78
2022/03/09 06:51:14;;;;;;;0.57;0.57;;;;;;;;;;5003734;28;20122;-79
2022/03/09 06:53:40;;;;;;;0.20;0.20;;;;;;;;;;5003118;28;20501;-79
2022/03/09 06:56:07;;;;;;;0.60;0.60;;;;;;;;;;5003452;28;20021;-81
2022/03/09 06:58:33;;;;;;;0.30;0.30;;;;;;;;;;5003049;28;20647;-81
2022/03/09 07:01:00;;;;;;;0.35;0.35;;;;;;;;;;5003252;28;20073;-80
2022/03/09 07:03:27;;;;;;;0.38;0.38;;;;;;;;;;5003658;28;20520;-80
2022/03/09 07:05:54;;;;;;;1.23;0.68;;;;;;;;;;5002980;28;20038;-80
2022/03/09 07:08:20;;;;;;;0.23;0.23;;;;;;;;;;4999101;28;20457;-81
2022/03/09 07:10:46;;;;;;;0.32;0.32;;;;;;;;;;5001967;28;20090;-80
2022/03/09 07:13:12;;;;;;;0.30;0.30;;;;;;;;;;5002927;28;20406;-80
2022/03/09 07:15:38;;;;;;;0.40;0.32;;;;;;;;;;4992469;28;20455;-81
2022/03/09 07:18:04;;;;;;;0.30;0.30;;;;;;;;;;5003496;28;20038;-81
2022/03/09 07:20:30;;;;;;;0.30;0.30;;;;;;;;;;5002558;28;20072;-81
2022/03/09 07:22:56;;;;;;;0.20;0.20;;;;;;;;;;5002808;28;20863;-80
2022/03/09 07:25:23;;;;;;;0.28;0.28;;;;;;;;;;5003225;28;20507;-80
2022/03/09 07:27:49;;;;;;;0.30;0.27;;;;;;;;;;5003249;28;20053;-80
2022/03/09 07:30:15;;;;;;;0.50;0.43;;;;;;;;;;5003651;28;20057;-81
2022/03/09 07:32:41;;;;;;;0.75;0.75;;;;;;;;;;5002061;28;20046;-81
2022/03/09 07:35:08;;;;;;;0.43;0.43;;;;;;;;;;5002596;28;20099;-81
2022/03/09 07:37:34;;;;;;;0.22;0.22;;;;;;;;;;5002718;28;20084;-82
2022/03/09 07:40:00;;;;;;;0.20;0.20;;;;;;;;;;4991484;28;20060;-82
2022/03/09 07:42:26;;;;;;;1.50;0.67;;;;;;;;;;5002022;28;20437;-81
2022/03/09 07:44:52;;;;;;;0.77;0.77;;;;;;;;;;5002678;28;20022;-84
2022/03/09 07:47:18;;;;;;;0.22;0.22;;;;;;;;;;4998509;28;20030;-82
2022/03/09 07:49:44;;;;;;;2.53;2.43;;;;;;;;;;5001766;28;20423;-81
2022/03/09 07:52:10;;;;;;;1999.90;999.90;;;;;;;;;;5002353;28;20038;-82
2022/03/09 07:54:36;;;;;;;1999.90;999.90;;;;;;;;;;4999048;28;20026;-87
2022/03/09 07:57:02;;;;;;;12.70;12.13;;;;;;;;;;5002666;28;20273;-87
2022/03/09 07:59:29;;;;;;;2.00;2.00;;;;;;;;;;5002316;28;20052;-87
2022/03/09 08:01:55;;;;;;;0.10;0.10;;;;;;;;;;5003590;28;20025;-87
2022/03/09 08:04:22;;;;;;;2.83;2.72;;;;;;;;;;5006064;28;20031;-87
2022/03/09 08:06:48;;;;;;;0.20;0.20;;;;;;;;;;4990522;28;20076;-86
2022/03/09 08:09:14;;;;;;;0.20;0.20;;;;;;;;;;5006339;28;20029;-86
2022/03/09 08:11:40;;;;;;;0.20;0.20;;;;;;;;;;5005567;28;20042;-87
2022/03/09 08:14:06;;;;;;;0.20;0.20;;;;;;;;;;5005559;28;20685;-88
2022/03/09 08:16:32;;;;;;;0.10;0.10;;;;;;;;;;5005492;28;20034;-87
2022/03/09 08:18:58;;;;;;;0.20;0.20;;;;;;;;;;5005382;28;20284;-87
2022/03/09 08:21:25;;;;;;;0.10;0.10;;;;;;;;;;5006213;28;20283;-87
2022/03/09 08:23:51;;;;;;;8.90;8.45;;;;;;;;;;5006024;28;20033;-86
2022/03/09 08:26:17;;;;;;;0.50;0.50;;;;;;;;;;5005511;28;20056;-87
2022/03/09 08:28:43;;;;;;;0.20;0.20;;;;;;;;;;5005582;28;20062;-86
2022/03/09 08:31:09;;;;;;;0.40;0.40;;;;;;;;;;5005336;28;20033;-87
2022/03/09 08:33:35;;;;;;;0.17;0.17;;;;;;;;;;5005522;28;20116;-86
2022/03/09 08:36:01;;;;;;;0.30;0.30;;;;;;;;;;5006102;28;20444;-87
2022/03/09 08:38:27;;;;;;;0.40;0.40;;;;;;;;;;5005522;28;20799;-85
2022/03/09 08:40:54;;;;;;;0.10;0.10;;;;;;;;;;5005265;28;20033;-87
2022/03/09 08:43:20;;;;;;;0.52;0.52;;;;;;;;;;5005367;28;20038;-87
2022/03/09 08:45:46;;;;;;;0.20;0.20;;;;;;;;;;5005498;28;20533;-86
2022/03/09 08:48:12;;;;;;;0.22;0.22;;;;;;;;;;5000737;28;20112;-88
2022/03/09 08:50:38;;;;;;;0.10;0.10;;;;;;;;;;5004983;28;20405;-87
2022/03/09 08:53:05;;;;;;;0.20;0.20;;;;;;;;;;5003549;28;20898;-86
2022/03/09 08:55:31;;;;;;;1999.90;999.90;;;;;;;;;;5005231;28;20041;-87
2022/03/09 08:57:57;;;;;;;122.53;111.13;;;;;;;;;;5005271;28;20706;-86
2022/03/09 09:00:24;;;;;;;0.15;0.15;;;;;;;;;;5005187;28;20399;-87
2022/03/09 09:02:50;;;;;;;;;;;;;;;;;;5005279;28;20559;-86
2022/03/09 09:05:16;;;;;;;0.20;0.20;;;;;;;;;;5004345;28;19909;-85
2022/03/09 09:07:42;;;;;;;0.52;0.52;;;;;;;;;;5005130;28;20034;-86
2022/03/09 09:10:08;;;;;;;0.20;0.20;;;;;;;;;;5004978;28;20410;-87
2022/03/09 09:12:34;;;;;;;1.70;1.70;;;;;;;;;;5004605;28;20049;-87
2022/03/09 09:15:00;;;;;;;0.55;0.55;;;;;;;;;;5003145;28;20057;-87
2022/03/09 09:17:26;;;;;;;0.73;0.73;;;;;;;;;;5004464;28;20067;-87
2022/03/09 09:19:52;;;;;;;0.57;0.57;;;;;;;;;;5004235;28;20525;-87
2022/03/09 09:22:18;;;;;;;1.50;1.50;;;;;;;;;;5004434;28;20092;-87
2022/03/09 09:24:45;;;;;;;0.50;0.50;;;;;;;;;;5004341;28;20580;-87
2022/03/09 09:27:11;;;;;;;0.20;0.20;;;;;;;;;;5005125;28;20037;-86
2022/03/09 09:29:37;;;;;;;1.13;1.13;;;;;;;;;;5004065;28;20030;-85
2022/03/09 09:32:03;;;;;;;0.73;0.73;;;;;;;;;;5003898;28;20041;-86
2022/03/09 09:34:29;;;;;;;1.27;1.27;;;;;;;;;;5004208;28;20065;-87
2022/03/09 09:36:55;;;;;;;1.20;1.20;;;;;;;;;;5004300;28;20056;-86
2022/03/09 09:39:22;;;;;;;0.93;0.93;;;;;;;;;;5004522;28;20029;-87
2022/03/09 09:41:49;;;;;;;1.10;1.10;;;;;;;;;;5003980;28;20030;-86
2022/03/09 09:44:15;;;;;;;0.98;0.98;;;;;;;;;;5003481;28;20030;-87
2022/03/09 09:46:42;;;;;;;0.87;0.87;;;;;;;;;;4998139;28;20733;-86
2022/03/09 09:49:13;;;;;;;1.63;1.63;;;;;;;;;;5003957;28;20265;-86
2022/03/09 09:51:41;;;;;;;0.60;0.60;;;;;;;;;;5003876;28;20405;-86
2022/03/09 09:54:07;;;;;;;0.90;0.90;;;;;;;;;;5004061;28;20038;-86
2022/03/09 09:56:40;;;;;;;1.17;1.17;;;;;;;;;;5003723;28;20034;-87
2022/03/09 09:59:07;;;;;;;0.85;0.85;;;;;;;;;;5003660;28;20042;-87
2022/03/09 10:01:33;;;;;;;0.90;0.90;;;;;;;;;;5003696;28;20061;-86
2022/03/09 10:03:59;;;;;;;0.68;0.68;;;;;;;;;;5004057;28;20037;-86
2022/03/09 10:06:25;;;;;;;0.85;0.85;;;;;;;;;;5004341;28;20041;-86
2022/03/09 10:09:08;;;;;;;0.90;0.90;;;;;;;;;;5004108;28;20018;-87
2022/03/09 10:11:46;;;;;;;66.60;20.02;;;;;;;;;;5002153;28;20072;-87
2022/03/09 10:14:12;;;;;;;1.10;1.00;;;;;;;;;;5003790;28;20026;-87
2022/03/09 10:16:38;;;;;;;0.85;0.85;;;;;;;;;;5003555;28;20029;-86
2022/03/09 10:19:04;;;;;;;0.10;0.10;;;;;;;;;;5003519;28;20034;-87
2022/03/09 10:21:35;;;;;;;0.20;0.20;;;;;;;;;;5003639;28;20160;-87
2022/03/09 10:24:09;;;;;;;1.45;0.95;;;;;;;;;;5001345;28;20360;-87
2022/03/09 10:26:35;;;;;;;2.20;0.47;;;;;;;;;;5003609;28;20033;-87
2022/03/09 10:29:03;;;;;;;0.20;0.20;;;;;;;;;;5003584;28;20030;-87
2022/03/09 10:31:32;;;;;;;0.30;0.30;;;;;;;;;;5003518;28;20531;-87
2022/03/09 10:34:09;;;;;;;1.00;1.00;;;;;;;;;;5003523;28;20026;-87
2022/03/09 10:36:35;;;;;;;0.60;0.60;;;;;;;;;;5003991;28;20034;-86
2022/03/09 10:39:15;;;;;;;0.40;0.40;;;;;;;;;;5001776;28;20104;-87
2022/03/09 10:41:41;;;;;;;0.32;0.32;;;;;;;;;;5002949;28;20033;-87
2022/03/09 10:44:07;;;;;;;0.70;0.70;;;;;;;;;;5002860;28;20033;-86
2022/03/09 10:46:44;;;;;;;0.40;0.40;;;;;;;;;;4998951;28;20114;-87
2022/03/09 10:49:12;;;;;;;0.32;0.32;;;;;;;;;;5003200;28;20032;-87
2022/03/09 10:51:38;;;;;;;0.30;0.30;;;;;;;;;;5002867;28;20038;-87
2022/03/09 10:54:06;;;;;;;0.30;0.30;;;;;;;;;;5003324;28;20042;-87
2022/03/09 10:56:33;;;;;;;0.25;0.25;;;;;;;;;;5002588;28;20034;-87
2022/03/09 10:58:59;;;;;;;;;;;;;;;;;;5002761;28;20667;-86
2022/03/09 11:01:25;;;;;;;0.30;0.30;;;;;;;;;;5002641;28;20381;-87
2022/03/09 11:03:51;;;;;;;0.30;0.30;;;;;;;;;;5003048;28;20109;-87
2022/03/09 11:06:17;;;;;;;0.20;0.20;;;;;;;;;;5003556;28;20033;-87
2022/03/09 11:08:43;;;;;;;0.40;0.40;;;;;;;;;;5003114;28;20034;-87
2022/03/09 11:11:10;;;;;;;0.20;0.20;;;;;;;;;;5002689;28;20560;-87
2022/03/09 11:13:37;;;;;;;0.20;0.20;;;;;;;;;;5002788;28;20034;-87
2022/03/09 11:16:04;;;;;;;0.20;0.20;;;;;;;;;;5002824;28;20596;-87
2022/03/09 11:18:30;;;;;;;0.20;0.20;;;;;;;;;;5002753;28;20049;-86
2022/03/09 11:20:57;;;;;;;0.30;0.30;;;;;;;;;;5002934;28;20140;-86
2022/03/09 11:23:24;;;;;;;0.20;0.20;;;;;;;;;;5002412;28;20038;-87
2022/03/09 11:26:06;;;;;;;0.50;0.50;;;;;;;;;;5002588;28;20026;-87
2022/03/09 11:28:37;;;;;;;0.30;0.30;;;;;;;;;;5002993;28;20119;-86
2022/03/09 11:31:05;;;;;;;0.30;0.30;;;;;;;;;;5002868;28;20107;-86
2022/03/09 11:33:42;;;;;;;0.30;0.30;;;;;;;;;;5002334;28;20521;-86
2022/03/09 11:36:08;;;;;;;;;;;;;;;;;;5002487;28;20026;-86
2022/03/09 11:38:34;;;;;;;0.20;0.20;;;;;;;;;;5006323;28;19913;-86
2022/03/09 11:41:16;;;;;;;0.20;0.20;;;;;;;;;;5006680;28;20040;-85
2022/03/09 11:43:43;;;;;;;0.20;0.20;;;;;;;;;;5005213;28;20048;-87
2022/03/09 11:46:09;;;;;;;0.10;0.10;;;;;;;;;;5004492;28;20489;-86
2022/03/09 11:48:51;;;;;;;0.30;0.30;;;;;;;;;;5004569;28;20045;-87
2022/03/09 11:51:17;;;;;;;0.20;0.20;;;;;;;;;;5006217;28;20030;-86
2022/03/09 11:53:48;;;;;;;0.20;0.20;;;;;;;;;;5005298;28;20029;-87
2022/03/09 11:56:24;;;;;;;0.20;0.20;;;;;;;;;;5005023;28;20042;-87
2022/03/09 11:59:09;;;;;;;0.20;0.20;;;;;;;;;;4998267;28;20525;-87
2022/03/09 12:01:54;;;;;;;0.20;0.20;;;;;;;;;;5005238;28;20153;-87
2022/03/09 12:04:39;;;;;;;0.20;0.20;;;;;;;;;;5004998;28;20578;-86
2022/03/09 12:07:05;;;;;;;0.20;0.20;;;;;;;;;;4992075;28;20080;-80
2022/03/09 12:09:50;;;;;;;0.20;0.20;;;;;;;;;;5005746;28;20087;-79
2022/03/09 12:12:16;;;;;;;0.40;0.40;;;;;;;;;;5005589;28;20180;-80
2022/03/09 12:15:01;;;;;;;0.20;0.20;;;;;;;;;;5004730;28;20549;-79
2022/03/09 12:17:28;;;;;;;0.20;0.20;;;;;;;;;;5009439;28;20037;-79
2022/03/09 12:20:14;;;;;;;0.40;0.40;;;;;;;;;;5004862;28;20022;-79
2022/03/09 12:22:56;;;;;;;0.50;0.50;;;;;;;;;;4997101;28;20069;-80
2022/03/09 12:25:40;;;;;;;0.35;0.35;;;;;;;;;;5004802;28;20084;-80
2022/03/09 12:28:32;;;;;;;0.30;0.30;;;;;;;;;;5004144;28;20037;-76
2022/03/09 12:31:00;;;;;;;0.50;0.50;;;;;;;;;;4989610;28;20030;-77
2022/03/09 12:33:31;;;;;;;0.30;0.30;;;;;;;;;;5002923;28;20086;-77
2022/03/09 12:36:05;;;;;;;0.30;0.30;;;;;;;;;;5004598;28;20030;-76
2022/03/09 12:38:35;;;;;;;0.50;0.50;;;;;;;;;;5002909;28;20038;-76
2022/03/09 12:41:01;;;;;;;0.30;0.30;;;;;;;;;;5003958;28;20100;-77
2022/03/09 12:43:28;;;;;;;0.30;0.30;;;;;;;;;;5005097;28;20038;-76
2022/03/09 12:45:55;;;;;;;0.20;0.20;;;;;;;;;;5003887;28;20033;-77
2022/03/09 12:48:21;;;;;;;;;;;;;;;;;;5004522;28;20037;-76
2022/03/09 12:50:47;;;;;;;0.00;0.00;;;;;;;;;;5004921;28;19914;-76
2022/03/09 12:53:20;;;;;;;0.30;0.30;;;;;;;;;;5004628;28;20076;-76
2022/03/09 12:55:46;;;;;;;0.00;0.00;;;;;;;;;;5004482;28;20300;-76
2022/03/09 12:58:12;;;;;;;0.00;0.00;;;;;;;;;;5003243;28;20983;-76
2022/03/09 13:00:39;;;;;;;0.10;0.10;;;;;;;;;;5003375;28;20038;-77
2022/03/09 13:03:09;;;;;;;0.20;0.20;;;;;;;;;;5004094;28;20081;-77
2022/03/09 13:05:36;;;;;;;0.10;0.10;;;;;;;;;;5003598;28;20287;-77
2022/03/09 13:08:09;;;;;;;0.20;0.20;;;;;;;;;;5003231;28;20022;-76
2022/03/09 13:10:49;;;;;;;0.20;0.20;;;;;;;;;;5000547;28;20033;-76
2022/03/09 13:13:15;;;;;;;0.20;0.20;;;;;;;;;;5002751;28;20038;-77
2022/03/09 13:15:43;;;;;;;0.20;0.20;;;;;;;;;;5003623;28;20040;-76
2022/03/09 13:18:10;;;;;;;0.20;0.20;;;;;;;;;;5003023;28;20093;-76
2022/03/09 13:20:38;;;;;;;0.20;0.20;;;;;;;;;;5003966;28;20026;-76
2022/03/09 13:23:04;;;;;;;0.20;0.20;;;;;;;;;;5004075;28;20887;-76
2022/03/09 13:25:31;;;;;;;0.20;0.20;;;;;;;;;;5004691;28;20678;-76
2022/03/09 13:28:05;;;;;;;0.20;0.20;;;;;;;;;;5003497;28;20034;-76
2022/03/09 13:30:32;;;;;;;0.20;0.20;;;;;;;;;;5004423;28;20521;-77
2022/03/09 13:33:11;;;;;;;0.20;0.20;;;;;;;;;;5004937;28;20052;-77
2022/03/09 13:35:47;;;;;;;0.20;0.20;;;;;;;;;;5003823;28;20061;-76
2022/03/09 13:38:19;;;;;;;0.20;0.20;;;;;;;;;;5004370;28;20489;-77
2022/03/09 13:40:45;;;;;;;0.20;0.20;;;;;;;;;;5004432;28;20087;-76
2022/03/09 13:43:11;;;;;;;0.20;0.20;;;;;;;;;;5004336;28;20048;-76
2022/03/09 13:45:41;;;;;;;0.20;0.20;;;;;;;;;;5004484;28;20199;-76
2022/03/09 13:48:08;;;;;;;0.20;0.20;;;;;;;;;;5000705;28;20128;-76
2022/03/09 13:50:35;;;;;;;0.10;0.10;;;;;;;;;;5004481;28;20037;-77
2022/03/09 13:53:09;;;;;;;0.20;0.20;;;;;;;;;;5003683;28;20049;-77
2022/03/09 13:55:54;;;;;;;0.20;0.20;;;;;;;;;;5003958;28;20037;-76
2022/03/09 13:58:23;;;;;;;0.00;0.00;;;;;;;;;;5003457;28;20037;-76
2022/03/09 14:00:49;;;;;;;29.70;10.07;;;;;;;;;;5001825;28;20044;-76
2022/03/09 14:03:15;;;;;;;0.10;0.10;;;;;;;;;;5004462;28;20055;-76
2022/03/09 14:05:43;;;;;;;0.20;0.20;;;;;;;;;;5003111;28;20061;-77
2022/03/09 14:08:29;;;;;;;0.20;0.20;;;;;;;;;;5002663;28;20037;-77
2022/03/09 14:11:13;;;;;;;0.20;0.20;;;;;;;;;;5001842;28;20140;-77
2022/03/09 14:14:02;;;;;;;0.10;0.10;;;;;;;;;;5002287;28;20042;-77
2022/03/09 14:16:29;;;;;;;0.20;0.20;;;;;;;;;;5002524;28;20414;-76
2022/03/09 14:18:56;;;;;;;0.20;0.20;;;;;;;;;;5002476;28;20041;-77
2022/03/09 14:21:22;;;;;;;0.13;0.13;;;;;;;;;;5003221;28;20025;-76
2022/03/09 14:23:48;;;;;;;0.20;0.20;;;;;;;;;;5002712;28;20034;-76
2022/03/09 14:26:15;;;;;;;0.20;0.20;;;;;;;;;;5001923;28;20109;-76
2022/03/09 14:28:41;;;;;;;0.20;0.20;;;;;;;;;;5001872;28;20069;-77
2022/03/09 14:31:07;;;;;;;0.20;0.20;;;;;;;;;;5001876;28;20021;-77
2022/03/09 14:33:33;;;;;;;0.20;0.20;;;;;;;;;;5001676;28;20144;-76
2022/03/09 14:35:59;;;;;;;0.20;0.20;;;;;;;;;;5001726;28;20032;-77
2022/03/09 14:38:26;;;;;;;0.20;0.20;;;;;;;;;;5002025;28;20034;-77
2022/03/09 14:40:52;;;;;;;0.20;0.20;;;;;;;;;;5001377;28;20030;-77
2022/03/09 14:43:18;;;;;;;0.20;0.20;;;;;;;;;;5002466;28;20036;-76
2022/03/09 14:45:44;;;;;;;0.20;0.20;;;;;;;;;;5001864;28;20062;-76
2022/03/09 14:48:10;;;;;;;0.20;0.20;;;;;;;;;;5001659;28;20041;-77